Halle Kroellwitz, Germany

2:44 PM CEST on July 03, 2015 (GMT +0200)
Halle, Paulusviertel | | Change Station
CLOSE
Current Station
Personal Weather Station
Location: Halle (Saale), SAXONY-ANHALT
Elevation: 361 ft
Nearby Weather Stations

Elev 361 ft 51.50 °N, 11.97 °E | Updated 19 seconds ago

Clear
Clear
93.9 °F
Feels Like 94 °F
N
3.6
Wind Variable Wind from SSW
Gusts 4.9 mph

Today
High -- | Low -- °F
--% Chance of Precip.
Yesterday
High -- | Low -- °F
Precip. -- in
5:00 AM 9:32 PM
Full, 97% visible
Pressure 30.21 in
Visibility -9999.0 miles
Clouds
Heat Index 94 °F
Dew Point 60 °F
Humidity 32%
Rainfall 0.00 in
Snow Depth Not available.
UV 5.0 out of 12
Pollen Not available.
Air Quality Not available.
Flu Activity Not available.
METAR EDDP 031220Z VRB07KT CAVOK 33/14 Q1023 NOSIG

More Conditions Fewer Conditions

Pressure 30.21 in
Visibility -9999.0 miles
Clouds
Heat Index 94 °F
Dew Point 60 °F
Humidity 32%
Rainfall 0.00 in
Snow Depth Not available.
UV 5.0 out of 12
Pollen Not available.
Air Quality Not available.
Flu Activity Not available.
METAR EDDP 031220Z VRB07KT CAVOK 33/14 Q1023 NOSIG

More Conditions Fewer Conditions

10-Day Weather Forecast

×

Almanac

Astronomy

Jul. 03, 2015 Rise Set
Actual Time
Civil Twilight
Nautical Twilight
Astronomical Twilight
Moon
Length of Visible Light
Length of Day
Tomorrow will be .
, % of the Moon is Illuminated

Today's Extremes

Country Highs Country Lows

Community

WunderPhotos

Upload Photos

1,834,660 photos uploaded!

WunderBlogs® & News

Nearby

Air Quality

  Air Quality AQ Index Pollutant
Not available.

Snow Depth

Station Depth Elevation

Earthquake Activity

City Distance Mag. Time & Date
Minimum magnitude displayed is 2.5.

Coastal Water Temperatures

Place Temperature

Stations

Nearby Weather Stations

Station Location Temp. Windchill Dew Point Humidity Wind Precip. Elev Updated Type